Time;durP1;ratioP1;P1;durP2;ratioP2;P2;SDS_P1;SDS_P2;PMS_P1;PMS_P2;Temp;Humidity;BMP_temperature;BMP_pressure;BME280_temperature;BME280_humidity;BME280_pressure;Samples;Min_cycle;Max_cycle;Signal;HPM_P1;HPM_P2
2022/01/25 00:16:07;;;;;;;4.60;4.20;;;2.50;81.50;;;;;;927500;147;27491;-73
2022/01/25 00:31:10;;;;;;;5.20;4.67;;;2.40;82.10;;;;;;911239;150;27431;-75
2022/01/25 00:33:31;;;;;;;5.07;4.37;;;2.30;82.20;;;;;;927377;150;27431;-75
2022/01/25 00:35:58;;;;;;;5.30;4.80;;;2.30;82.20;;;;;;927440;150;27406;-74
2022/01/25 00:38:25;;;;;;;4.77;4.27;;;2.30;82.40;;;;;;927912;150;27874;-75
2022/01/25 00:40:51;;;;;;;4.57;4.17;;;2.30;82.40;;;;;;930341;150;27401;-74
2022/01/25 00:43:19;;;;;;;8.83;4.80;;;2.30;82.40;;;;;;929666;150;27407;-75
2022/01/25 00:45:44;;;;;;;4.57;4.20;;;2.30;82.50;;;;;;932048;150;27501;-74
2022/01/25 00:48:18;;;;;;;6.00;4.97;;;2.20;82.50;;;;;;931330;150;27299;-74
2022/01/25 00:50:41;;;;;;;5.17;4.67;;;2.30;82.70;;;;;;928857;150;27741;-74
2022/01/25 00:55:31;;;;;;;5.10;4.60;;;2.20;83.10;;;;;;930343;150;27348;-74
2022/01/25 00:57:57;;;;;;;4.60;4.13;;;2.20;82.60;;;;;;928133;150;27405;-74
2022/01/25 01:00:24;;;;;;;4.90;4.43;;;2.20;82.70;;;;;;928845;150;27375;-75
2022/01/25 01:02:50;;;;;;;4.80;4.40;;;2.20;82.70;;;;;;930292;150;27340;-75
2022/01/25 01:05:17;;;;;;;5.13;4.07;;;2.10;82.60;;;;;;930613;150;27362;-74
2022/01/25 01:07:44;;;;;;;5.30;4.80;;;2.10;82.70;;;;;;929779;150;27474;-74
2022/01/25 01:10:13;;;;;;;5.37;4.80;;;2.10;82.70;;;;;;931735;150;27486;-74
2022/01/25 01:15:31;;;;;;;5.83;5.03;;;2.10;82.80;;;;;;928997;150;27413;-73
2022/01/25 01:29:06;;;;;;;5.47;4.60;;;2.00;83.30;;;;;;903034;158;27503;-74
2022/01/25 01:31:30;;;;;;;5.20;4.70;;;2.00;83.40;;;;;;898723;155;27505;-73
2022/01/25 01:34:25;;;;;;;5.67;5.10;;;1.90;83.30;;;;;;887039;160;27471;-73
2022/01/25 01:37:06;;;;;;;5.07;4.57;;;1.90;83.40;;;;;;899131;158;27960;-74
2022/01/25 01:44:03;;;;;;;5.63;5.07;;;1.80;83.60;;;;;;894156;155;27404;-73
2022/01/25 01:46:37;;;;;;;5.60;5.00;;;1.80;83.50;;;;;;887428;160;27306;-73
2022/01/25 01:49:00;;;;;;;5.80;4.93;;;1.80;83.60;;;;;;891082;157;27577;-74
2022/01/25 01:51:29;;;;;;;8.27;5.43;;;1.80;84.50;;;;;;904507;155;27414;-73
2022/01/25 01:53:52;;;;;;;6.90;5.73;;;1.80;83.60;;;;;;902921;155;27915;-74
2022/01/25 01:56:19;;;;;;;6.17;5.03;;;1.80;83.70;;;;;;902551;158;27489;-74
2022/01/25 01:58:46;;;;;;;5.53;4.73;;;1.70;83.60;;;;;;901213;158;27545;-74
2022/01/25 02:01:12;;;;;;;5.37;4.87;;;1.70;83.60;;;;;;884718;161;27509;-73
2022/01/25 02:03:39;;;;;;;6.77;5.37;;;1.70;83.40;;;;;;886444;160;27417;-74
2022/01/25 02:06:05;;;;;;;6.60;5.53;;;1.70;83.70;;;;;;885032;160;27540;-73
2022/01/25 02:08:34;;;;;;;6.13;5.53;;;1.70;83.70;;;;;;902134;155;27442;-73
2022/01/25 02:10:59;;;;;;;6.33;5.73;;;1.60;83.70;;;;;;901512;155;27435;-73
2022/01/25 02:13:25;;;;;;;5.40;4.90;;;1.60;83.90;;;;;;888433;158;27430;-73
2022/01/25 02:15:54;;;;;;;7.47;5.30;;;1.60;84.00;;;;;;883741;158;27565;-74
2022/01/25 02:23:36;;;;;;;5.83;4.90;;;1.50;84.10;;;;;;884821;160;27567;-73
2022/01/25 02:26:02;;;;;;;6.23;4.93;;;1.50;84.00;;;;;;885838;160;27561;-73
2022/01/25 02:28:29;;;;;;;6.50;5.83;;;1.50;84.10;;;;;;881792;161;27456;-73
2022/01/25 02:30:58;;;;;;;7.23;5.07;;;1.50;84.20;;;;;;876976;160;27440;-73
2022/01/25 02:33:25;;;;;;;5.53;5.00;;;1.50;84.20;;;;;;877639;160;27420;-74
2022/01/25 02:35:51;;;;;;;6.37;5.43;;;1.50;85.10;;;;;;897391;158;27438;-74
2022/01/25 02:38:27;;;;;;;6.60;5.57;;;1.40;84.20;;;;;;897193;158;27504;-74
2022/01/25 02:40:53;;;;;;;6.57;5.77;;;1.40;84.30;;;;;;895093;158;27449;-74
2022/01/25 02:43:21;;;;;;;7.23;5.37;;;1.40;84.40;;;;;;881004;158;27646;-73
2022/01/25 02:46:05;;;;;;;6.80;5.83;;;1.40;84.60;;;;;;879822;161;27553;-74
2022/01/25 02:48:30;;;;;;;7.30;5.80;;;1.40;84.80;;;;;;881818;160;27366;-73
2022/01/25 02:51:00;;;;;;;7.00;5.33;;;1.40;85.00;;;;;;881256;158;27582;-74
2022/01/25 02:53:26;;;;;;;9.60;6.40;;;1.40;85.10;;;;;;880340;160;27424;-74
2022/01/25 02:55:53;;;;;;;8.37;6.37;;;1.40;85.20;;;;;;884870;158;27532;-74
2022/01/25 02:58:19;;;;;;;6.30;5.70;;;1.40;85.40;;;;;;879368;158;27509;-74
2022/01/25 03:00:46;;;;;;;7.40;6.00;;;1.30;85.30;;;;;;895497;158;27426;-74
2022/01/25 03:03:13;;;;;;;7.60;5.97;;;1.40;85.40;;;;;;895255;158;27430;-74
2022/01/25 03:05:39;;;;;;;6.17;5.57;;;1.40;85.50;;;;;;882738;160;27550;-73
2022/01/25 03:08:11;;;;;;;7.17;6.20;;;1.30;85.40;;;;;;901112;157;27401;-73
2022/01/25 03:10:35;;;;;;;8.73;5.90;;;1.40;85.40;;;;;;880421;161;27525;-73
2022/01/25 03:13:02;;;;;;;6.80;5.50;;;1.40;85.40;;;;;;881430;161;27484;-73
2022/01/25 03:15:54;;;;;;;6.07;5.27;;;1.30;85.40;;;;;;896184;158;27417;-74
2022/01/25 03:18:05;;;;;;;6.10;5.17;;;1.30;85.40;;;;;;897653;158;27514;-74
2022/01/25 03:20:50;;;;;;;6.03;5.40;;;1.30;85.40;;;;;;896871;158;27498;-74
2022/01/25 03:23:17;;;;;;;5.90;5.33;;;1.30;85.40;;;;;;893131;158;27861;-74
2022/01/25 03:25:32;;;;;;;5.33;4.83;;;1.30;85.40;;;;;;875660;160;27488;-74
2022/01/25 03:27:59;;;;;;;5.70;5.10;;;1.30;85.40;;;;;;876024;161;27370;-74
2022/01/25 03:30:28;;;;;;;7.70;6.00;;;1.30;85.50;;;;;;872889;161;27533;-74
2022/01/25 03:32:55;;;;;;;5.77;5.17;;;1.20;85.60;;;;;;888137;161;27543;-74
2022/01/25 03:35:22;;;;;;;6.13;5.33;;;1.20;85.60;;;;;;874253;161;27469;-79
2022/01/25 03:37:48;;;;;;;6.20;5.40;;;1.20;85.70;;;;;;878846;161;27468;-81
2022/01/25 03:40:15;;;;;;;8.43;5.90;;;1.20;85.70;;;;;;876152;161;27451;-81
2022/01/25 03:42:41;;;;;;;5.70;5.00;;;1.20;85.70;;;;;;893116;159;27477;-81
2022/01/25 03:45:08;;;;;;;7.23;5.53;;;1.20;85.80;;;;;;893206;156;27400;-73
2022/01/25 03:47:57;;;;;;;7.33;6.20;;;1.20;85.80;;;;;;881132;157;27454;-73
2022/01/25 03:50:13;;;;;;;5.87;5.27;;;1.20;85.90;;;;;;878896;158;27357;-73
2022/01/25 03:52:39;;;;;;;6.20;5.60;;;1.10;85.80;;;;;;894071;152;27432;-80
2022/01/25 03:55:06;;;;;;;6.40;4.77;;;1.10;85.90;;;;;;878097;161;27392;-81
2022/01/25 03:57:33;;;;;;;6.10;5.50;;;1.10;85.70;;;;;;890909;159;27412;-78
2022/01/25 04:00:00;;;;;;;6.13;5.43;;;1.10;85.70;;;;;;892564;158;27551;-81
2022/01/25 04:02:27;;;;;;;6.60;4.83;;;1.10;85.60;;;;;;891412;159;27541;-81
2022/01/25 04:04:52;;;;;;;7.20;5.37;;;1.00;85.40;;;;;;876337;161;27587;-81
2022/01/25 04:07:31;;;;;;;6.30;5.53;;;1.00;85.40;;;;;;878560;161;27515;-82
2022/01/25 04:09:46;;;;;;;6.13;5.53;;;1.00;85.40;;;;;;875160;161;27460;-77
2022/01/25 04:12:17;;;;;;;6.63;5.97;;;1.00;85.60;;;;;;876457;158;27547;-81
2022/01/25 04:14:39;;;;;;;6.37;5.73;;;1.00;85.50;;;;;;874938;159;27949;-80
2022/01/25 04:17:09;;;;;;;6.87;5.23;;;0.90;85.50;;;;;;891478;159;27415;-82
2022/01/25 04:27:24;;;;;;;8.03;5.77;;;0.80;85.80;;;;;;887852;158;27592;-81
2022/01/25 04:29:51;;;;;;;7.57;6.10;;;0.80;85.90;;;;;;879108;161;27453;-80
2022/01/25 04:32:18;;;;;;;6.90;5.70;;;0.80;86.00;;;;;;877760;161;27447;-81
2022/01/25 04:35:09;;;;;;;7.10;5.03;;;0.80;86.20;;;;;;886821;159;27339;-80
2022/01/25 04:53:23;;;;;;;7.67;5.87;;;0.70;86.60;;;;;;877417;161;27492;-81
2022/01/25 04:58:34;;;;;;;8.87;5.53;;;0.70;86.80;;;;;;885308;160;27566;-81
2022/01/25 05:00:52;;;;;;;7.20;6.00;;;0.70;86.80;;;;;;884787;159;27326;-78
2022/01/25 05:03:24;;;;;;;6.27;5.67;;;0.70;87.00;;;;;;885110;159;27426;-80
2022/01/25 05:05:59;;;;;;;6.43;5.83;;;0.70;87.10;;;;;;884311;159;27823;-78
2022/01/25 05:08:32;;;;;;;7.20;5.87;;;0.70;87.10;;;;;;884703;159;27951;-80
2022/01/25 05:10:59;;;;;;;9.57;6.57;;;0.70;87.30;;;;;;883644;160;27486;-80
2022/01/25 05:13:35;;;;;;;7.57;5.33;;;0.70;87.30;;;;;;884425;160;27368;-78
2022/01/25 05:18:36;;;;;;;6.97;5.23;;;0.70;87.40;;;;;;884592;159;27772;-79
2022/01/25 05:23:35;;;;;;;7.30;6.10;;;0.70;87.60;;;;;;886129;160;27367;-81
2022/01/25 05:26:02;;;;;;;7.83;5.90;;;0.70;87.70;;;;;;886243;156;27490;-77
2022/01/25 05:28:29;;;;;;;6.00;5.27;;;0.70;87.80;;;;;;892381;158;27583;-73
2022/01/25 05:30:55;;;;;;;7.33;6.23;;;0.70;87.80;;;;;;889772;158;27433;-81
2022/01/25 05:33:22;;;;;;;6.53;5.27;;;0.70;87.80;;;;;;891536;159;27475;-81
2022/01/25 05:35:48;;;;;;;7.63;6.60;;;0.70;87.90;;;;;;891151;159;27446;-81
2022/01/25 05:38:15;;;;;;;7.93;6.10;;;0.70;88.00;;;;;;892357;159;27780;-79
2022/01/25 05:40:56;;;;;;;7.57;6.53;;;0.70;87.90;;;;;;889696;158;27439;-74
2022/01/25 05:46:00;;;;;;;7.27;6.57;;;0.70;87.80;;;;;;892796;159;27382;-81
2022/01/25 05:48:22;;;;;;;6.90;5.83;;;0.70;87.90;;;;;;891133;159;27440;-79
2022/01/25 05:50:49;;;;;;;7.57;5.70;;;0.70;87.90;;;;;;889518;159;27407;-77
2022/01/25 05:53:15;;;;;;;6.43;5.83;;;0.70;88.00;;;;;;891703;159;27425;-80
2022/01/25 05:55:42;;;;;;;7.23;6.40;;;0.70;88.00;;;;;;892744;159;27427;-80
2022/01/25 05:58:08;;;;;;;7.37;5.70;;;0.70;87.90;;;;;;890929;158;27396;-80
2022/01/25 06:00:35;;;;;;;6.83;5.80;;;0.70;88.00;;;;;;890215;159;27391;-79
2022/01/25 06:03:05;;;;;;;8.03;6.20;;;0.70;87.90;;;;;;890094;159;27436;-79
2022/01/25 06:05:31;;;;;;;6.57;5.87;;;0.70;87.90;;;;;;891469;159;27531;-81
2022/01/25 06:07:57;;;;;;;6.60;5.87;;;0.70;87.80;;;;;;890724;159;27537;-81
2022/01/25 06:10:24;;;;;;;8.37;6.67;;;0.70;88.40;;;;;;890403;159;27477;-78
2022/01/25 06:12:51;;;;;;;10.27;6.30;;;0.70;87.80;;;;;;890444;159;27441;-81
2022/01/25 06:15:18;;;;;;;7.30;6.10;;;0.70;87.90;;;;;;891407;156;27494;-81
2022/01/25 06:17:45;;;;;;;8.63;6.00;;;0.70;87.90;;;;;;891298;159;27430;-73
2022/01/25 06:20:10;;;;;;;9.20;6.20;;;0.70;87.80;;;;;;891210;158;27507;-81
2022/01/25 06:22:37;;;;;;;7.57;5.87;;;0.70;87.90;;;;;;888816;159;27468;-81
2022/01/25 06:25:04;;;;;;;6.97;6.13;;;0.60;87.80;;;;;;891632;159;27411;-79
2022/01/25 06:27:30;;;;;;;8.17;5.80;;;0.60;87.80;;;;;;891646;158;27420;-77
2022/01/25 06:29:57;;;;;;;7.53;6.20;;;0.60;87.90;;;;;;891817;159;27476;-77
2022/01/25 06:32:23;;;;;;;7.87;6.60;;;0.60;87.90;;;;;;891721;159;27438;-81
2022/01/25 06:34:50;;;;;;;8.27;6.27;;;0.60;87.80;;;;;;891075;159;27475;-80
2022/01/25 06:37:17;;;;;;;7.40;6.13;;;0.60;87.80;;;;;;890850;159;27469;-80
2022/01/25 06:39:43;;;;;;;8.37;6.70;;;0.50;87.80;;;;;;890876;159;27344;-79
2022/01/25 06:42:10;;;;;;;7.87;5.90;;;0.50;87.90;;;;;;890695;159;27461;-76
2022/01/25 06:44:37;;;;;;;7.60;6.13;;;0.50;87.90;;;;;;891764;158;27421;-82
2022/01/25 06:47:03;;;;;;;7.73;6.27;;;0.50;87.80;;;;;;892548;156;27476;-79
2022/01/25 06:49:29;;;;;;;8.83;6.47;;;0.50;87.80;;;;;;891895;158;27435;-81
2022/01/25 06:51:57;;;;;;;7.20;5.50;;;0.50;87.80;;;;;;890952;159;27410;-78
2022/01/25 06:54:23;;;;;;;9.30;6.63;;;0.50;87.80;;;;;;892518;158;27299;-79
2022/01/25 06:56:49;;;;;;;8.43;5.93;;;0.40;87.60;;;;;;891162;156;27406;-73
2022/01/25 06:59:16;;;;;;;6.93;6.23;;;0.40;87.60;;;;;;892285;158;27501;-78
2022/01/25 07:01:42;;;;;;;8.53;6.90;;;0.40;87.70;;;;;;891503;155;27335;-81
2022/01/25 07:04:09;;;;;;;7.27;5.90;;;0.40;87.80;;;;;;891223;159;27336;-74
2022/01/25 07:06:35;;;;;;;8.83;6.23;;;0.40;87.80;;;;;;889393;159;27919;-76
2022/01/25 07:09:03;;;;;;;7.73;6.10;;;0.40;87.90;;;;;;892027;158;27481;-72
2022/01/25 07:11:32;;;;;;;7.97;6.40;;;0.40;87.90;;;;;;889603;158;27444;-79
2022/01/25 07:13:58;;;;;;;9.83;8.07;;;0.40;88.00;;;;;;891708;158;27413;-79
2022/01/25 07:16:25;;;;;;;7.93;6.43;;;0.40;87.90;;;;;;890625;158;27409;-79
2022/01/25 07:18:51;;;;;;;9.77;6.90;;;0.40;87.90;;;;;;890981;159;27525;-80
2022/01/25 07:21:18;;;;;;;9.40;6.67;;;0.40;88.10;;;;;;892494;159;27504;-73
2022/01/25 07:23:44;;;;;;;7.33;6.57;;;0.40;88.20;;;;;;891552;158;27491;-78
2022/01/25 07:26:11;;;;;;;7.03;6.20;;;0.50;88.50;;;;;;889887;158;27507;-80
2022/01/25 07:28:38;;;;;;;7.80;6.47;;;0.50;88.80;;;;;;893750;158;27362;-81
2022/01/25 07:31:04;;;;;;;8.13;6.60;;;0.50;89.10;;;;;;895380;158;27382;-78
2022/01/25 07:33:30;;;;;;;8.77;7.07;;;0.60;89.50;;;;;;893530;158;27390;-73
2022/01/25 07:35:57;;;;;;;8.97;6.80;;;0.70;90.00;;;;;;893237;158;27445;-79
2022/01/25 07:38:24;;;;;;;8.03;6.90;;;0.80;90.20;;;;;;895222;158;27518;-78
2022/01/25 07:40:50;;;;;;;8.00;6.17;;;1.00;90.40;;;;;;893239;158;27403;-79
2022/01/25 07:43:17;;;;;;;9.77;7.50;;;1.10;90.60;;;;;;894467;158;27473;-78
2022/01/25 07:45:50;;;;;;;10.40;7.90;;;1.30;90.60;;;;;;894775;158;27364;-76
2022/01/25 07:48:10;;;;;;;8.33;7.40;;;1.50;90.70;;;;;;895915;158;27409;-80
2022/01/25 07:50:37;;;;;;;11.53;8.30;;;1.70;90.80;;;;;;893892;157;27535;-77
2022/01/25 07:53:03;;;;;;;11.10;7.73;;;1.90;90.80;;;;;;893440;158;27410;-79
2022/01/25 07:55:30;;;;;;;8.60;7.70;;;2.10;90.80;;;;;;892772;158;27532;-80
2022/01/25 07:57:56;;;;;;;9.47;7.23;;;2.30;90.80;;;;;;895432;158;27377;-79
2022/01/25 08:00:23;;;;;;;10.33;7.07;;;2.60;90.90;;;;;;893220;158;27454;-76
2022/01/25 08:02:51;;;;;;;8.37;7.43;;;2.80;91.40;;;;;;894447;158;27421;-79
2022/01/25 08:05:16;;;;;;;9.03;7.57;;;3.10;91.00;;;;;;896319;158;28597;-80
2022/01/25 08:07:43;;;;;;;11.60;7.67;;;3.40;90.90;;;;;;894904;157;27355;-80
2022/01/25 08:10:09;;;;;;;9.97;7.53;;;3.60;90.80;;;;;;895508;157;27416;-76
2022/01/25 08:12:36;;;;;;;10.50;7.83;;;3.90;90.60;;;;;;893319;158;27479;-77
2022/01/25 08:15:04;;;;;;;11.23;8.27;;;4.20;90.30;;;;;;892532;158;27469;-78
2022/01/25 08:17:29;;;;;;;11.40;7.83;;;4.40;89.80;;;;;;893359;158;27446;-79
2022/01/25 08:19:58;;;;;;;9.30;7.53;;;4.50;88.60;;;;;;894651;158;27373;-78
2022/01/25 08:22:25;;;;;;;13.63;8.90;;;4.70;87.60;;;;;;893327;158;27480;-79
2022/01/25 08:24:52;;;;;;;10.20;8.13;;;4.80;86.90;;;;;;892994;158;27438;-73
2022/01/25 08:27:23;;;;;;;10.30;8.23;;;4.80;86.00;;;;;;894996;158;27408;-79
2022/01/25 08:29:45;;;;;;;10.97;8.13;;;4.80;85.50;;;;;;888930;158;27499;-79
2022/01/25 08:32:11;;;;;;;11.57;8.77;;;4.80;85.30;;;;;;884096;159;27923;-80
2022/01/25 08:34:38;;;;;;;10.87;7.87;;;4.80;85.50;;;;;;885400;160;27394;-76
2022/01/25 08:37:05;;;;;;;13.83;7.93;;;4.80;85.70;;;;;;885596;156;27388;-74
2022/01/25 08:39:31;;;;;;;14.23;8.33;;;4.80;85.80;;;;;;886203;160;27434;-78
2022/01/25 08:41:58;;;;;;;9.63;8.07;;;4.80;85.80;;;;;;885391;160;27833;-79
2022/01/25 08:44:24;;;;;;;11.17;8.53;;;4.90;85.90;;;;;;886008;156;27843;-79
2022/01/25 08:46:51;;;;;;;11.43;8.43;;;4.90;86.10;;;;;;885279;160;27481;-76
2022/01/25 08:49:17;;;;;;;10.87;8.00;;;4.90;86.10;;;;;;887097;159;27867;-77
2022/01/25 08:51:44;;;;;;;9.83;8.07;;;5.00;86.00;;;;;;886288;160;27355;-73
2022/01/25 08:54:11;;;;;;;10.63;8.73;;;5.00;85.70;;;;;;885470;160;27501;-80
2022/01/25 08:56:41;;;;;;;12.33;9.03;;;5.10;85.50;;;;;;887148;159;28233;-79
2022/01/25 08:59:07;;;;;;;11.10;8.83;;;5.10;85.30;;;;;;886127;160;27376;-79
2022/01/25 09:01:33;;;;;;;11.03;8.43;;;5.10;85.20;;;;;;885821;158;27405;-81
2022/01/25 09:04:01;;;;;;;14.27;10.43;;;5.10;85.80;;;;;;887787;159;27393;-76
2022/01/25 09:06:26;;;;;;;14.97;10.60;;;5.10;85.10;;;;;;884570;159;27514;-78
2022/01/25 09:08:53;;;;;;;11.93;9.83;;;5.20;85.40;;;;;;885983;159;27395;-77
2022/01/25 09:11:20;;;;;;;12.47;10.30;;;5.20;85.70;;;;;;884247;160;27363;-80
2022/01/25 09:13:46;;;;;;;16.60;10.53;;;5.30;85.90;;;;;;886583;159;27373;-79
2022/01/25 09:16:13;;;;;;;19.20;10.03;;;5.40;86.00;;;;;;886223;157;27855;-73
2022/01/25 09:18:43;;;;;;;14.90;10.60;;;5.50;86.10;;;;;;885494;159;27745;-77
2022/01/25 09:21:09;;;;;;;12.00;9.30;;;5.60;86.00;;;;;;884306;160;27390;-73
2022/01/25 09:23:35;;;;;;;12.83;10.03;;;5.70;85.80;;;;;;886182;160;27437;-72
2022/01/25 09:26:02;;;;;;;12.20;10.13;;;5.80;85.80;;;;;;887771;156;27378;-73
2022/01/25 09:28:29;;;;;;;12.07;9.67;;;5.90;85.80;;;;;;888871;157;27809;-73
2022/01/25 09:30:55;;;;;;;11.53;9.13;;;6.00;86.10;;;;;;888080;156;27426;-72
2022/01/25 09:33:24;;;;;;;13.93;10.73;;;6.10;86.70;;;;;;891986;157;27421;-79
2022/01/25 09:35:51;;;;;;;15.83;10.53;;;6.30;86.50;;;;;;890610;159;27434;-80
2022/01/25 09:38:18;;;;;;;14.27;10.20;;;6.50;86.60;;;;;;889688;159;27393;-80
2022/01/25 09:40:44;;;;;;;11.40;10.07;;;6.70;86.70;;;;;;868231;162;27616;-77
2022/01/25 09:43:14;;;;;;;13.80;10.30;;;6.80;86.40;;;;;;887331;159;27545;-74
2022/01/25 09:45:40;;;;;;;13.47;9.63;;;7.00;85.70;;;;;;873268;162;27490;-80
2022/01/25 09:48:07;;;;;;;14.30;10.30;;;7.10;84.90;;;;;;874343;162;27481;-80
2022/01/25 09:50:33;;;;;;;11.87;9.43;;;7.20;84.40;;;;;;873081;162;27577;-80
2022/01/25 09:53:00;;;;;;;12.97;10.27;;;7.30;84.10;;;;;;875653;159;27453;-78
2022/01/25 09:55:26;;;;;;;13.20;9.03;;;7.40;83.70;;;;;;890257;157;27426;-74
2022/01/25 09:57:53;;;;;;;12.53;9.93;;;7.50;83.40;;;;;;885435;159;27362;-78
2022/01/25 10:00:20;;;;;;;11.47;9.60;;;7.50;83.10;;;;;;886978;159;28032;-80
2022/01/25 10:03:03;;;;;;;10.80;9.00;;;7.60;82.80;;;;;;886474;159;27403;-79
2022/01/25 10:05:30;;;;;;;10.57;9.47;;;7.70;82.50;;;;;;883440;159;27489;-80
2022/01/25 10:07:56;;;;;;;10.87;8.93;;;7.70;82.10;;;;;;885325;159;27475;-79
2022/01/25 10:10:23;;;;;;;9.50;8.33;;;7.70;81.90;;;;;;886806;159;27411;-79
2022/01/25 10:12:50;;;;;;;11.10;8.67;;;7.70;81.80;;;;;;886182;160;27459;-77
2022/01/25 10:15:16;;;;;;;11.97;9.30;;;7.70;81.90;;;;;;871434;160;27624;-77
2022/01/25 10:17:43;;;;;;;10.97;8.80;;;7.70;81.70;;;;;;871350;163;27485;-79
2022/01/25 10:20:24;;;;;;;10.90;9.33;;;7.70;81.70;;;;;;884942;160;27428;-78
2022/01/25 10:22:51;;;;;;;10.97;9.17;;;7.70;81.60;;;;;;887892;159;27378;-80
2022/01/25 10:25:42;;;;;;;12.80;10.00;;;7.80;81.70;;;;;;886424;160;27406;-79
2022/01/25 10:28:12;;;;;;;12.80;9.80;;;7.70;81.70;;;;;;886132;160;27437;-79
2022/01/25 10:30:53;;;;;;;15.43;11.73;;;7.80;81.60;;;;;;884916;156;27616;-76
2022/01/25 10:33:35;;;;;;;11.43;9.47;;;7.80;80.70;;;;;;882874;160;27478;-74
2022/01/25 10:35:59;;;;;;;12.90;9.27;;;7.80;81.60;;;;;;884708;159;27486;-80
2022/01/25 10:38:25;;;;;;;11.83;8.93;;;7.80;81.70;;;;;;867195;162;28672;-79
2022/01/25 10:40:55;;;;;;;12.40;9.53;;;7.80;82.00;;;;;;872610;162;27556;-80
2022/01/25 10:43:21;;;;;;;13.10;9.63;;;7.80;81.90;;;;;;872348;162;27522;-78
2022/01/25 10:45:48;;;;;;;12.23;10.20;;;7.90;81.90;;;;;;876456;159;27459;-74
2022/01/25 10:48:14;;;;;;;14.03;10.73;;;7.90;81.90;;;;;;884475;159;28249;-80
2022/01/25 10:50:44;;;;;;;12.70;10.03;;;7.90;81.80;;;;;;884980;159;27515;-78
2022/01/25 10:53:10;;;;;;;12.30;9.73;;;7.90;81.60;;;;;;868368;162;27926;-79
2022/01/25 10:55:43;;;;;;;12.53;10.10;;;8.00;81.70;;;;;;868053;162;27526;-78
2022/01/25 10:58:10;;;;;;;11.80;9.77;;;8.00;81.50;;;;;;885201;160;27464;-73
2022/01/25 11:00:36;;;;;;;15.13;11.07;;;8.00;81.40;;;;;;872757;162;27414;-78
2022/01/25 11:03:06;;;;;;;11.47;9.50;;;8.00;81.40;;;;;;872644;162;27535;-79
2022/01/25 11:05:32;;;;;;;12.40;9.67;;;8.00;81.50;;;;;;887234;159;27450;-79
2022/01/25 11:07:59;;;;;;;12.43;9.90;;;8.00;82.00;;;;;;866016;163;27430;-79
2022/01/25 11:10:25;;;;;;;13.07;10.20;;;8.10;81.40;;;;;;883996;159;27469;-73
2022/01/25 11:13:11;;;;;;;12.50;9.87;;;8.10;81.10;;;;;;886954;159;27429;-76
2022/01/25 11:15:30;;;;;;;10.97;8.50;;;8.10;81.00;;;;;;870093;163;27486;-79
2022/01/25 11:17:57;;;;;;;12.20;9.80;;;8.00;80.90;;;;;;889833;159;27421;-80
2022/01/25 11:20:24;;;;;;;10.77;9.47;;;8.00;81.10;;;;;;885759;159;27359;-79
2022/01/25 11:22:50;;;;;;;12.00;10.17;;;8.00;81.20;;;;;;877004;160;27417;-79
2022/01/25 11:25:19;;;;;;;10.93;9.33;;;8.10;81.40;;;;;;878087;161;27532;-78
2022/01/25 11:27:46;;;;;;;11.97;10.00;;;8.10;81.40;;;;;;876539;161;27499;-79
2022/01/25 11:30:12;;;;;;;11.67;10.13;;;8.10;81.40;;;;;;885447;159;27475;-76
2022/01/25 11:32:42;;;;;;;15.43;11.50;;;8.10;81.50;;;;;;876821;161;27484;-77
2022/01/25 11:35:08;;;;;;;12.77;10.60;;;8.20;81.60;;;;;;886238;159;28916;-80
2022/01/25 11:37:38;;;;;;;9.77;8.77;;;8.20;81.80;;;;;;872895;162;27433;-79
2022/01/25 11:40:04;;;;;;;12.43;9.93;;;8.30;81.40;;;;;;874475;162;27410;-78
2022/01/25 11:42:36;;;;;;;14.00;11.00;;;8.40;81.50;;;;;;868389;162;27596;-77
2022/01/25 11:44:57;;;;;;;12.50;11.13;;;8.40;81.10;;;;;;864971;163;27572;-74
2022/01/25 11:47:30;;;;;;;14.73;11.13;;;8.40;80.80;;;;;;887697;160;27424;-78
2022/01/25 11:49:57;;;;;;;11.93;10.73;;;8.40;80.70;;;;;;864797;162;27443;-79
2022/01/25 11:52:24;;;;;;;12.90;10.57;;;8.50;80.70;;;;;;886906;159;27475;-79
2022/01/25 11:54:50;;;;;;;11.33;10.10;;;8.50;80.50;;;;;;884972;160;27484;-77
2022/01/25 11:57:16;;;;;;;12.23;10.80;;;8.50;80.50;;;;;;887629;160;27361;-75
2022/01/25 11:59:43;;;;;;;13.40;10.83;;;8.50;80.50;;;;;;871142;162;27462;-76
2022/01/25 12:02:10;;;;;;;14.63;11.30;;;8.50;80.50;;;;;;879493;161;27471;-77
2022/01/25 12:04:36;;;;;;;10.27;9.17;;;8.50;80.40;;;;;;879839;159;27443;-78
2022/01/25 12:07:13;;;;;;;11.13;9.37;;;8.50;80.50;;;;;;870167;162;27528;-80
2022/01/25 12:10:02;;;;;;;11.33;9.67;;;8.60;80.50;;;;;;884436;159;27584;-78
2022/01/25 12:12:17;;;;;;;11.83;10.63;;;8.60;80.50;;;;;;885411;160;27472;-80
2022/01/25 12:14:44;;;;;;;11.97;10.47;;;8.60;80.40;;;;;;886679;160;27492;-77
2022/01/25 12:17:13;;;;;;;19.40;15.43;;;8.60;80.20;;;;;;886393;156;28056;-80
2022/01/25 12:19:49;;;;;;;14.93;11.87;;;8.60;80.60;;;;;;868435;162;27451;-77
2022/01/25 12:22:48;;;;;;;12.73;10.87;;;8.60;80.00;;;;;;866434;162;27554;-76
2022/01/25 12:25:05;;;;;;;13.53;11.40;;;8.60;80.00;;;;;;877149;160;27464;-76
2022/01/25 12:27:34;;;;;;;13.57;10.53;;;8.60;79.90;;;;;;888812;159;27781;-78
2022/01/25 12:30:01;;;;;;;11.50;10.30;;;8.60;79.80;;;;;;886770;160;27447;-78
2022/01/25 12:32:36;;;;;;;12.33;10.73;;;8.60;79.70;;;;;;891063;158;27494;-79
2022/01/25 12:35:08;;;;;;;13.73;10.90;;;8.60;79.80;;;;;;896908;158;27889;-79
2022/01/25 12:37:53;;;;;;;13.87;11.50;;;8.60;79.80;;;;;;895835;158;27413;-78
2022/01/25 12:40:25;;;;;;;12.40;10.97;;;8.60;79.70;;;;;;895183;157;27367;-78
2022/01/25 12:42:58;;;;;;;12.30;10.30;;;8.60;79.80;;;;;;896021;158;27556;-79
2022/01/25 12:45:24;;;;;;;11.70;9.90;;;8.60;79.70;;;;;;895527;158;27469;-79
2022/01/25 12:47:54;;;;;;;12.80;10.17;;;8.60;79.70;;;;;;895116;158;27404;-76
2022/01/25 12:50:23;;;;;;;12.20;10.53;;;8.50;79.60;;;;;;893890;158;27431;-78
2022/01/25 12:52:50;;;;;;;11.67;9.27;;;8.50;79.70;;;;;;896022;158;27416;-73
2022/01/25 12:55:16;;;;;;;12.00;10.20;;;8.50;79.70;;;;;;897069;158;27425;-77
2022/01/25 12:57:48;;;;;;;11.33;10.10;;;8.60;79.90;;;;;;880167;160;28493;-76
2022/01/25 13:00:15;;;;;;;13.17;10.47;;;8.60;80.00;;;;;;893372;158;27526;-76
2022/01/25 13:02:41;;;;;;;11.30;10.13;;;8.60;79.90;;;;;;899810;157;27431;-77
2022/01/25 13:05:17;;;;;;;10.87;9.53;;;8.60;79.90;;;;;;893540;158;27452;-78
2022/01/25 13:07:44;;;;;;;12.87;10.53;;;8.60;79.70;;;;;;896380;157;27475;-78
2022/01/25 13:10:12;;;;;;;12.87;10.13;;;8.60;79.60;;;;;;880291;160;27554;-78
2022/01/25 13:12:54;;;;;;;12.57;9.17;;;8.60;79.50;;;;;;896018;158;27505;-77
2022/01/25 13:15:28;;;;;;;12.90;10.53;;;8.60;79.50;;;;;;893647;158;27452;-77
2022/01/25 13:17:42;;;;;;;12.63;10.30;;;8.60;79.40;;;;;;893348;158;27466;-74
2022/01/25 13:20:09;;;;;;;11.40;9.83;;;8.60;79.30;;;;;;876276;160;27467;-73
2022/01/25 13:22:39;;;;;;;12.53;10.73;;;8.60;79.30;;;;;;891762;157;27920;-78
2022/01/25 13:27:35;;;;;;;11.53;9.37;;;8.60;79.20;;;;;;895565;158;27422;-78
2022/01/25 13:32:46;;;;;;;11.60;9.93;;;8.60;79.20;;;;;;891393;156;27508;-79
2022/01/25 13:35:26;;;;;;;11.67;9.57;;;8.50;79.10;;;;;;870985;162;27435;-76
2022/01/25 13:38:05;;;;;;;11.73;9.57;;;8.60;79.20;;;;;;872080;162;27494;-75
2022/01/25 13:40:50;;;;;;;12.80;10.13;;;8.50;79.10;;;;;;888493;160;27458;-74
2022/01/25 13:45:51;;;;;;;15.53;9.20;;;8.50;79.00;;;;;;822498;171;27449;-79
2022/01/25 13:48:22;;;;;;;14.53;9.80;;;8.40;79.10;;;;;;871458;162;27403;-79
2022/01/25 13:50:47;;;;;;;16.10;9.47;;;8.40;79.10;;;;;;871641;162;27386;-79
2022/01/25 13:53:13;;;;;;;13.57;9.63;;;8.40;79.20;;;;;;887416;160;27445;-79
2022/01/25 13:55:40;;;;;;;12.23;9.67;;;8.40;79.20;;;;;;871139;162;27427;-76
2022/01/25 13:58:25;;;;;;;10.67;8.97;;;8.40;79.20;;;;;;865333;165;27406;-77
2022/01/25 14:00:51;;;;;;;12.07;8.80;;;8.40;79.30;;;;;;866347;163;27525;-79
2022/01/25 14:03:18;;;;;;;10.43;9.07;;;8.30;79.20;;;;;;888191;160;27493;-78
2022/01/25 14:05:44;;;;;;;12.03;9.93;;;8.30;79.10;;;;;;887426;160;27421;-79
2022/01/25 14:08:13;;;;;;;12.23;10.20;;;8.30;79.00;;;;;;868964;162;27523;-76
2022/01/25 14:10:45;;;;;;;12.07;10.70;;;8.20;78.80;;;;;;887835;159;28073;-76
2022/01/25 14:21:43;;;;;;;16.20;11.73;;;7.90;78.60;;;;;;885416;159;27454;-77
2022/01/25 14:23:58;;;;;;;15.30;11.03;;;7.80;78.80;;;;;;884507;160;27475;-78
2022/01/25 14:26:28;;;;;;;13.60;11.13;;;7.80;79.00;;;;;;886069;159;27444;-74
2022/01/25 14:29:13;;;;;;;12.60;10.60;;;7.70;79.00;;;;;;885964;160;27544;-78
2022/01/25 14:31:33;;;;;;;13.77;10.70;;;7.60;79.00;;;;;;888056;160;27450;-80
2022/01/25 14:34:02;;;;;;;17.43;11.57;;;7.60;79.30;;;;;;866309;161;28123;-79
2022/01/25 14:36:28;;;;;;;15.47;11.70;;;7.50;79.50;;;;;;867859;162;27496;-79
2022/01/25 14:38:55;;;;;;;15.23;11.60;;;7.50;79.60;;;;;;886898;160;27534;-80